sensor_id;sensor_type;location;lat;lon;timestamp;pressure;altitude;pressure_sealevel;temperature;humidity
21828;BME280;11076;47.942;11.804;2024-01-07T00:04:31;93358.25;;;0.46;43.52
21828;BME280;11076;47.942;11.804;2024-01-07T00:09:33;93361.88;;;0.62;43.33
21828;BME280;11076;47.942;11.804;2024-01-07T00:14:36;93355.72;;;0.66;43.21
21828;BME280;11076;47.942;11.804;2024-01-07T00:19:38;93356.50;;;0.62;43.26
21828;BME280;11076;47.942;11.804;2024-01-07T00:24:42;93349.38;;;0.78;43.08
21828;BME280;11076;47.942;11.804;2024-01-07T00:29:45;93347.03;;;0.86;43.03
21828;BME280;11076;47.942;11.804;2024-01-07T00:34:47;93347.75;;;0.77;43.00
21828;BME280;11076;47.942;11.804;2024-01-07T00:39:50;93349.44;;;0.50;43.28
21828;BME280;11076;47.942;11.804;2024-01-07T00:44:52;93351.22;;;0.72;43.38
21828;BME280;11076;47.942;11.804;2024-01-07T00:49:55;93352.75;;;0.63;43.30
21828;BME280;11076;47.942;11.804;2024-01-07T00:54:57;93349.50;;;0.61;43.45
21828;BME280;11076;47.942;11.804;2024-01-07T01:00:04;93355.41;;;0.58;43.32
21828;BME280;11076;47.942;11.804;2024-01-07T01:05:07;93358.09;;;0.63;43.39
21828;BME280;11076;47.942;11.804;2024-01-07T01:10:09;93358.41;;;0.66;43.19
21828;BME280;11076;47.942;11.804;2024-01-07T01:15:12;93354.84;;;0.93;42.93
21828;BME280;11076;47.942;11.804;2024-01-07T01:20:14;93362.50;;;0.79;43.02
21828;BME280;11076;47.942;11.804;2024-01-07T01:25:17;93358.72;;;0.70;43.27
21828;BME280;11076;47.942;11.804;2024-01-07T01:30:19;93361.34;;;0.65;43.16
21828;BME280;11076;47.942;11.804;2024-01-07T01:35:22;93363.53;;;0.68;43.17
21828;BME280;11076;47.942;11.804;2024-01-07T01:40:25;93357.13;;;0.74;43.23
21828;BME280;11076;47.942;11.804;2024-01-07T01:45:27;93363.41;;;0.52;43.39
21828;BME280;11076;47.942;11.804;2024-01-07T01:50:30;93359.22;;;0.34;43.67
21828;BME280;11076;47.942;11.804;2024-01-07T01:55:32;93356.13;;;0.48;43.56
21828;BME280;11076;47.942;11.804;2024-01-07T02:00:35;93357.56;;;0.61;43.36
21828;BME280;11076;47.942;11.804;2024-01-07T02:05:38;93358.28;;;0.83;43.04
21828;BME280;11076;47.942;11.804;2024-01-07T02:10:40;93352.97;;;0.93;42.83
21828;BME280;11076;47.942;11.804;2024-01-07T02:15:44;93354.47;;;0.79;43.05
21828;BME280;11076;47.942;11.804;2024-01-07T02:20:46;93356.16;;;0.90;42.80
21828;BME280;11076;47.942;11.804;2024-01-07T02:25:49;93356.72;;;0.92;42.50
21828;BME280;11076;47.942;11.804;2024-01-07T02:30:52;93355.06;;;0.86;42.84
21828;BME280;11076;47.942;11.804;2024-01-07T02:35:54;93356.94;;;0.86;42.74
21828;BME280;11076;47.942;11.804;2024-01-07T02:40:58;93358.22;;;0.78;43.22
21828;BME280;11076;47.942;11.804;2024-01-07T02:46:01;93360.56;;;1.07;42.67
21828;BME280;11076;47.942;11.804;2024-01-07T02:51:03;93355.47;;;1.10;42.26
21828;BME280;11076;47.942;11.804;2024-01-07T02:56:07;93350.59;;;0.97;42.65
21828;BME280;11076;47.942;11.804;2024-01-07T03:01:11;93355.75;;;1.09;42.48
21828;BME280;11076;47.942;11.804;2024-01-07T03:06:13;93345.09;;;1.19;42.22
21828;BME280;11076;47.942;11.804;2024-01-07T03:11:16;93343.97;;;1.63;41.49
21828;BME280;11076;47.942;11.804;2024-01-07T03:16:20;93348.56;;;1.72;41.10
21828;BME280;11076;47.942;11.804;2024-01-07T03:21:23;93350.38;;;1.57;41.58
21828;BME280;11076;47.942;11.804;2024-01-07T03:26:29;93350.91;;;1.59;41.41
21828;BME280;11076;47.942;11.804;2024-01-07T03:31:34;93347.09;;;1.44;42.06
21828;BME280;11076;47.942;11.804;2024-01-07T03:36:36;93349.06;;;1.59;42.02
21828;BME280;11076;47.942;11.804;2024-01-07T03:41:39;93352.31;;;1.71;41.48
21828;BME280;11076;47.942;11.804;2024-01-07T03:46:41;93358.16;;;1.53;41.42
21828;BME280;11076;47.942;11.804;2024-01-07T03:51:44;93355.16;;;1.39;41.59
21828;BME280;11076;47.942;11.804;2024-01-07T03:56:46;93358.50;;;1.72;41.26
21828;BME280;11076;47.942;11.804;2024-01-07T04:01:49;93360.34;;;1.66;41.26
21828;BME280;11076;47.942;11.804;2024-01-07T04:06:51;93364.34;;;1.11;42.17
21828;BME280;11076;47.942;11.804;2024-01-07T04:11:53;93366.47;;;1.09;42.82
21828;BME280;11076;47.942;11.804;2024-01-07T04:16:56;93369.16;;;1.51;41.92
21828;BME280;11076;47.942;11.804;2024-01-07T04:21:58;93371.31;;;1.49;41.66
21828;BME280;11076;47.942;11.804;2024-01-07T04:27:01;93373.22;;;1.64;41.32
21828;BME280;11076;47.942;11.804;2024-01-07T04:32:03;93372.94;;;1.56;41.41
21828;BME280;11076;47.942;11.804;2024-01-07T04:37:06;93377.56;;;1.65;41.69
21828;BME280;11076;47.942;11.804;2024-01-07T04:42:08;93387.06;;;1.36;41.93
21828;BME280;11076;47.942;11.804;2024-01-07T04:47:32;93379.66;;;1.58;41.47
21828;BME280;11076;47.942;11.804;2024-01-07T04:52:37;93382.44;;;1.79;41.21
21828;BME280;11076;47.942;11.804;2024-01-07T04:57:40;93390.69;;;1.62;41.34
21828;BME280;11076;47.942;11.804;2024-01-07T05:02:42;93395.03;;;1.78;41.15
21828;BME280;11076;47.942;11.804;2024-01-07T05:07:44;93401.94;;;1.59;41.45
21828;BME280;11076;47.942;11.804;2024-01-07T05:12:47;93397.28;;;1.39;41.53
21828;BME280;11076;47.942;11.804;2024-01-07T05:17:49;93406.50;;;1.58;41.67
21828;BME280;11076;47.942;11.804;2024-01-07T05:22:52;93413.66;;;1.42;41.92
21828;BME280;11076;47.942;11.804;2024-01-07T05:27:54;93408.34;;;1.47;41.57
21828;BME280;11076;47.942;11.804;2024-01-07T05:32:56;93410.28;;;1.57;41.56
21828;BME280;11076;47.942;11.804;2024-01-07T05:37:59;93416.47;;;1.63;41.35
21828;BME280;11076;47.942;11.804;2024-01-07T05:43:01;93421.97;;;1.41;41.96
21828;BME280;11076;47.942;11.804;2024-01-07T05:48:04;93423.34;;;1.43;41.70
21828;BME280;11076;47.942;11.804;2024-01-07T05:53:06;93418.25;;;1.42;41.90
21828;BME280;11076;47.942;11.804;2024-01-07T05:58:09;93427.44;;;1.51;41.66
21828;BME280;11076;47.942;11.804;2024-01-07T06:03:11;93426.44;;;1.72;41.29
21828;BME280;11076;47.942;11.804;2024-01-07T06:08:13;93427.88;;;1.38;41.87
21828;BME280;11076;47.942;11.804;2024-01-07T06:13:16;93429.09;;;1.25;41.73
21828;BME280;11076;47.942;11.804;2024-01-07T06:18:18;93440.06;;;1.18;41.95
21828;BME280;11076;47.942;11.804;2024-01-07T06:23:21;93440.94;;;0.91;42.53
21828;BME280;11076;47.942;11.804;2024-01-07T06:28:23;93437.44;;;0.91;42.54
21828;BME280;11076;47.942;11.804;2024-01-07T06:33:25;93444.06;;;0.78;42.58
21828;BME280;11076;47.942;11.804;2024-01-07T06:38:28;93446.72;;;0.78;42.81
21828;BME280;11076;47.942;11.804;2024-01-07T06:43:30;93454.63;;;0.90;42.40
21828;BME280;11076;47.942;11.804;2024-01-07T06:48:32;93458.66;;;0.92;42.39
21828;BME280;11076;47.942;11.804;2024-01-07T06:53:35;93465.59;;;0.88;42.52
21828;BME280;11076;47.942;11.804;2024-01-07T06:58:37;93468.56;;;0.60;43.04
21828;BME280;11076;47.942;11.804;2024-01-07T07:03:40;93471.00;;;0.93;42.63
21828;BME280;11076;47.942;11.804;2024-01-07T07:08:43;93474.25;;;0.96;42.35
21828;BME280;11076;47.942;11.804;2024-01-07T07:13:45;93485.66;;;1.13;42.45
21828;BME280;11076;47.942;11.804;2024-01-07T07:18:48;93484.16;;;0.95;42.50
21828;BME280;11076;47.942;11.804;2024-01-07T07:23:50;93488.63;;;1.17;42.42
21828;BME280;11076;47.942;11.804;2024-01-07T07:28:52;93492.22;;;1.27;42.01
21828;BME280;11076;47.942;11.804;2024-01-07T07:33:55;93497.19;;;1.13;42.38
21828;BME280;11076;47.942;11.804;2024-01-07T07:38:57;93508.38;;;1.32;42.06
21828;BME280;11076;47.942;11.804;2024-01-07T07:44:00;93510.94;;;1.22;41.69
21828;BME280;11076;47.942;11.804;2024-01-07T07:49:02;93510.78;;;1.02;42.21
21828;BME280;11076;47.942;11.804;2024-01-07T07:54:04;93519.78;;;1.18;41.98
21828;BME280;11076;47.942;11.804;2024-01-07T07:59:07;93528.78;;;0.79;42.06
21828;BME280;11076;47.942;11.804;2024-01-07T08:04:10;93530.59;;;0.96;41.85
21828;BME280;11076;47.942;11.804;2024-01-07T08:09:13;93539.03;;;1.09;41.99
21828;BME280;11076;47.942;11.804;2024-01-07T08:14:15;93539.59;;;1.44;41.58
21828;BME280;11076;47.942;11.804;2024-01-07T08:19:18;93552.56;;;1.25;41.62
21828;BME280;11076;47.942;11.804;2024-01-07T08:24:20;93547.19;;;1.52;41.25
21828;BME280;11076;47.942;11.804;2024-01-07T08:29:23;93552.75;;;1.13;42.05
21828;BME280;11076;47.942;11.804;2024-01-07T08:34:25;93551.28;;;1.00;41.95
21828;BME280;11076;47.942;11.804;2024-01-07T08:39:29;93557.69;;;1.26;41.70
21828;BME280;11076;47.942;11.804;2024-01-07T08:44:32;93561.22;;;1.64;41.43
21828;BME280;11076;47.942;11.804;2024-01-07T08:49:34;93564.53;;;1.12;41.61
21828;BME280;11076;47.942;11.804;2024-01-07T08:54:37;93570.00;;;1.22;41.53
21828;BME280;11076;47.942;11.804;2024-01-07T08:59:39;93585.00;;;1.45;41.03
21828;BME280;11076;47.942;11.804;2024-01-07T09:04:41;93584.13;;;1.40;40.97
21828;BME280;11076;47.942;11.804;2024-01-07T09:09:44;93588.69;;;1.12;41.36
21828;BME280;11076;47.942;11.804;2024-01-07T09:14:46;93602.31;;;1.05;41.32
21828;BME280;11076;47.942;11.804;2024-01-07T09:19:48;93603.09;;;1.60;41.66
21828;BME280;11076;47.942;11.804;2024-01-07T09:24:51;93607.25;;;1.19;41.59
21828;BME280;11076;47.942;11.804;2024-01-07T09:29:55;93612.63;;;1.46;41.46
21828;BME280;11076;47.942;11.804;2024-01-07T09:34:57;93620.38;;;1.75;41.21
21828;BME280;11076;47.942;11.804;2024-01-07T09:40:00;93613.28;;;1.58;40.23
21828;BME280;11076;47.942;11.804;2024-01-07T09:45:03;93613.94;;;1.16;40.82
21828;BME280;11076;47.942;11.804;2024-01-07T09:50:07;93613.25;;;1.53;40.67
21828;BME280;11076;47.942;11.804;2024-01-07T09:55:33;93618.97;;;1.99;41.26
21828;BME280;11076;47.942;11.804;2024-01-07T10:00:39;93602.13;;;2.62;40.93
21828;BME280;11076;47.942;11.804;2024-01-07T10:05:42;93614.78;;;2.19;40.06
21828;BME280;11076;47.942;11.804;2024-01-07T10:10:44;93617.56;;;2.92;40.25
21828;BME280;11076;47.942;11.804;2024-01-07T10:15:47;93610.91;;;3.15;40.12
21828;BME280;11076;47.942;11.804;2024-01-07T10:20:49;93616.75;;;2.86;40.06
21828;BME280;11076;47.942;11.804;2024-01-07T10:25:52;93621.28;;;2.23;39.47
21828;BME280;11076;47.942;11.804;2024-01-07T10:30:57;93614.44;;;2.52;40.13
21828;BME280;11076;47.942;11.804;2024-01-07T10:36:06;93613.63;;;3.30;39.63
21828;BME280;11076;47.942;11.804;2024-01-07T10:41:09;93613.06;;;3.34;39.50
21828;BME280;11076;47.942;11.804;2024-01-07T10:46:14;93608.81;;;3.58;39.31
21828;BME280;11076;47.942;11.804;2024-01-07T10:51:22;93623.88;;;3.49;39.18
21828;BME280;11076;47.942;11.804;2024-01-07T10:56:39;93622.81;;;3.45;38.98
21828;BME280;11076;47.942;11.804;2024-01-07T11:01:48;93625.19;;;3.26;39.10
21828;BME280;11076;47.942;11.804;2024-01-07T11:06:57;93627.56;;;3.07;39.22
21828;BME280;11076;47.942;11.804;2024-01-07T11:12:03;93621.16;;;3.18;39.15
21828;BME280;11076;47.942;11.804;2024-01-07T11:17:08;93618.91;;;2.89;39.24
21828;BME280;11076;47.942;11.804;2024-01-07T11:22:29;93621.84;;;2.88;38.87
21828;BME280;11076;47.942;11.804;2024-01-07T11:27:32;93620.44;;;2.65;38.62
21828;BME280;11076;47.942;11.804;2024-01-07T11:32:34;93618.34;;;1.87;38.50
21828;BME280;11076;47.942;11.804;2024-01-07T11:37:37;93622.91;;;2.29;38.79
21828;BME280;11076;47.942;11.804;2024-01-07T11:42:39;93623.50;;;2.41;38.44
21828;BME280;11076;47.942;11.804;2024-01-07T11:47:42;93621.59;;;2.84;38.27
21828;BME280;11076;47.942;11.804;2024-01-07T11:52:44;93628.28;;;2.29;38.05
21828;BME280;11076;47.942;11.804;2024-01-07T11:57:47;93626.41;;;2.77;37.99
21828;BME280;11076;47.942;11.804;2024-01-07T12:02:49;93632.03;;;2.23;38.37
21828;BME280;11076;47.942;11.804;2024-01-07T12:07:51;93632.13;;;2.96;38.74
21828;BME280;11076;47.942;11.804;2024-01-07T12:12:54;93637.97;;;1.87;39.26
21828;BME280;11076;47.942;11.804;2024-01-07T12:17:58;93639.19;;;1.42;39.45
21828;BME280;11076;47.942;11.804;2024-01-07T12:23:08;93635.22;;;1.82;38.97
21828;BME280;11076;47.942;11.804;2024-01-07T12:28:11;93640.13;;;1.58;39.45
21828;BME280;11076;47.942;11.804;2024-01-07T12:33:17;93653.53;;;1.53;39.75
21828;BME280;11076;47.942;11.804;2024-01-07T12:38:24;93644.00;;;1.13;40.04
21828;BME280;11076;47.942;11.804;2024-01-07T12:43:27;93647.16;;;1.10;39.72
21828;BME280;11076;47.942;11.804;2024-01-07T12:48:30;93662.03;;;0.96;39.76
21828;BME280;11076;47.942;11.804;2024-01-07T12:53:32;93676.50;;;0.50;40.57
21828;BME280;11076;47.942;11.804;2024-01-07T12:58:35;93679.31;;;0.22;41.30
21828;BME280;11076;47.942;11.804;2024-01-07T13:03:38;93676.91;;;0.81;40.59
21828;BME280;11076;47.942;11.804;2024-01-07T13:08:40;93688.72;;;0.24;41.10
21828;BME280;11076;47.942;11.804;2024-01-07T13:13:43;93690.97;;;0.49;40.61
21828;BME280;11076;47.942;11.804;2024-01-07T13:18:45;93696.16;;;0.78;40.42
21828;BME280;11076;47.942;11.804;2024-01-07T13:23:48;93692.84;;;0.71;40.40
21828;BME280;11076;47.942;11.804;2024-01-07T13:28:50;93701.94;;;1.14;40.08
21828;BME280;11076;47.942;11.804;2024-01-07T13:33:53;93706.66;;;0.80;39.92
21828;BME280;11076;47.942;11.804;2024-01-07T13:38:55;93708.53;;;1.01;40.14
21828;BME280;11076;47.942;11.804;2024-01-07T13:43:58;93717.28;;;1.41;40.10
21828;BME280;11076;47.942;11.804;2024-01-07T13:49:00;93714.50;;;1.30;39.84
21828;BME280;11076;47.942;11.804;2024-01-07T13:54:03;93718.38;;;0.96;40.24
21828;BME280;11076;47.942;11.804;2024-01-07T13:59:05;93726.94;;;0.53;40.56
21828;BME280;11076;47.942;11.804;2024-01-07T14:04:08;93729.38;;;0.77;40.06
21828;BME280;11076;47.942;11.804;2024-01-07T14:09:10;93741.63;;;0.68;40.15
21828;BME280;11076;47.942;11.804;2024-01-07T14:14:13;93740.06;;;0.72;40.08
21828;BME280;11076;47.942;11.804;2024-01-07T14:19:15;93745.81;;;0.81;40.72
21828;BME280;11076;47.942;11.804;2024-01-07T14:24:18;93750.28;;;0.36;41.02
21828;BME280;11076;47.942;11.804;2024-01-07T14:29:21;93766.69;;;0.40;40.67
21828;BME280;11076;47.942;11.804;2024-01-07T14:34:23;93763.09;;;0.51;40.69
21828;BME280;11076;47.942;11.804;2024-01-07T14:39:26;93772.13;;;-0.35;41.39
21828;BME280;11076;47.942;11.804;2024-01-07T14:44:29;93778.63;;;-0.59;41.55
21828;BME280;11076;47.942;11.804;2024-01-07T14:49:33;93780.50;;;0.14;41.10
21828;BME280;11076;47.942;11.804;2024-01-07T14:54:36;93782.91;;;-0.01;40.93
21828;BME280;11076;47.942;11.804;2024-01-07T14:59:39;93792.09;;;0.03;40.96
21828;BME280;11076;47.942;11.804;2024-01-07T15:04:42;93795.00;;;-0.44;41.51
21828;BME280;11076;47.942;11.804;2024-01-07T15:09:44;93800.34;;;-0.44;41.10
21828;BME280;11076;47.942;11.804;2024-01-07T15:14:46;93808.97;;;-0.25;41.20
21828;BME280;11076;47.942;11.804;2024-01-07T15:19:49;93815.06;;;-0.30;41.06
21828;BME280;11076;47.942;11.804;2024-01-07T15:24:51;93827.84;;;-1.13;42.51
21828;BME280;11076;47.942;11.804;2024-01-07T15:29:55;93829.72;;;-1.25;42.14
21828;BME280;11076;47.942;11.804;2024-01-07T15:34:57;93828.16;;;-0.86;41.76
21828;BME280;11076;47.942;11.804;2024-01-07T15:39:59;93836.72;;;-0.72;41.66
21828;BME280;11076;47.942;11.804;2024-01-07T15:45:02;93833.81;;;-0.30;41.41
21828;BME280;11076;47.942;11.804;2024-01-07T15:50:05;93839.97;;;-0.70;41.75
21828;BME280;11076;47.942;11.804;2024-01-07T15:55:08;93847.56;;;-0.90;42.28
21828;BME280;11076;47.942;11.804;2024-01-07T16:00:11;93864.69;;;-1.38;43.18
21828;BME280;11076;47.942;11.804;2024-01-07T16:05:14;93864.72;;;-1.80;44.35
21828;BME280;11076;47.942;11.804;2024-01-07T16:10:16;93869.47;;;-1.05;42.40
21828;BME280;11076;47.942;11.804;2024-01-07T16:15:19;93881.53;;;-1.26;42.93
21828;BME280;11076;47.942;11.804;2024-01-07T16:20:21;93890.72;;;-1.46;43.12
21828;BME280;11076;47.942;11.804;2024-01-07T16:25:24;93881.53;;;-1.14;42.82
21828;BME280;11076;47.942;11.804;2024-01-07T16:30:27;93898.41;;;-1.37;43.19
21828;BME280;11076;47.942;11.804;2024-01-07T16:35:30;93906.53;;;-1.09;42.52
21828;BME280;11076;47.942;11.804;2024-01-07T16:40:32;93903.88;;;-1.09;42.50
21828;BME280;11076;47.942;11.804;2024-01-07T16:45:35;93911.63;;;-1.42;42.98
21828;BME280;11076;47.942;11.804;2024-01-07T16:50:39;93924.22;;;-1.19;42.38
21828;BME280;11076;47.942;11.804;2024-01-07T16:55:42;93920.03;;;-1.27;43.04
21828;BME280;11076;47.942;11.804;2024-01-07T17:00:44;93930.47;;;-1.37;42.42
21828;BME280;11076;47.942;11.804;2024-01-07T17:05:47;93938.47;;;-1.49;43.27
21828;BME280;11076;47.942;11.804;2024-01-07T17:10:49;93939.50;;;-1.80;43.74
21828;BME280;11076;47.942;11.804;2024-01-07T17:15:52;93945.06;;;-1.52;43.29
21828;BME280;11076;47.942;11.804;2024-01-07T17:20:55;93943.94;;;-1.32;42.74
21828;BME280;11076;47.942;11.804;2024-01-07T17:25:57;93952.13;;;-1.03;42.44
21828;BME280;11076;47.942;11.804;2024-01-07T17:31:00;93955.16;;;-1.12;42.56
21828;BME280;11076;47.942;11.804;2024-01-07T17:36:02;93968.09;;;-1.51;42.87
21828;BME280;11076;47.942;11.804;2024-01-07T17:41:05;93968.13;;;-1.39;42.90
21828;BME280;11076;47.942;11.804;2024-01-07T17:46:08;93971.53;;;-1.62;42.84
21828;BME280;11076;47.942;11.804;2024-01-07T17:51:18;93979.06;;;-1.29;42.57
21828;BME280;11076;47.942;11.804;2024-01-07T17:56:20;93985.78;;;-1.38;42.06
21828;BME280;11076;47.942;11.804;2024-01-07T18:01:23;93985.69;;;-1.31;42.02
21828;BME280;11076;47.942;11.804;2024-01-07T18:06:25;93991.25;;;-1.33;42.02
21828;BME280;11076;47.942;11.804;2024-01-07T18:11:28;93992.91;;;-1.62;42.40
21828;BME280;11076;47.942;11.804;2024-01-07T18:16:32;94005.66;;;-1.34;42.08
21828;BME280;11076;47.942;11.804;2024-01-07T18:21:34;94012.47;;;-1.19;41.97
21828;BME280;11076;47.942;11.804;2024-01-07T18:26:37;94018.06;;;-1.09;41.51
21828;BME280;11076;47.942;11.804;2024-01-07T18:31:43;94019.78;;;-1.15;42.23
21828;BME280;11076;47.942;11.804;2024-01-07T18:36:45;94023.78;;;-0.58;41.01
21828;BME280;11076;47.942;11.804;2024-01-07T18:41:47;94024.00;;;-0.95;41.69
21828;BME280;11076;47.942;11.804;2024-01-07T18:46:50;94029.03;;;-0.87;41.25
21828;BME280;11076;47.942;11.804;2024-01-07T18:51:52;94031.38;;;-1.63;42.63
21828;BME280;11076;47.942;11.804;2024-01-07T18:56:54;94039.34;;;-1.02;41.53
21828;BME280;11076;47.942;11.804;2024-01-07T19:01:59;94047.75;;;-0.87;41.40
21828;BME280;11076;47.942;11.804;2024-01-07T19:07:04;94045.09;;;-1.29;41.60
21828;BME280;11076;47.942;11.804;2024-01-07T19:12:06;94053.31;;;-1.00;41.60
21828;BME280;11076;47.942;11.804;2024-01-07T19:17:09;94054.06;;;-1.23;42.03
21828;BME280;11076;47.942;11.804;2024-01-07T19:22:11;94057.78;;;-1.73;42.02
21828;BME280;11076;47.942;11.804;2024-01-07T19:27:14;94057.63;;;-1.41;41.29
21828;BME280;11076;47.942;11.804;2024-01-07T19:32:16;94064.84;;;-1.30;41.79
21828;BME280;11076;47.942;11.804;2024-01-07T19:37:19;94072.28;;;-1.32;41.76
21828;BME280;11076;47.942;11.804;2024-01-07T19:42:21;94085.53;;;-1.74;41.64
21828;BME280;11076;47.942;11.804;2024-01-07T19:47:24;94083.44;;;-1.72;41.72
21828;BME280;11076;47.942;11.804;2024-01-07T19:52:27;94094.53;;;-1.87;41.75
21828;BME280;11076;47.942;11.804;2024-01-07T19:57:30;94096.03;;;-1.91;41.72
21828;BME280;11076;47.942;11.804;2024-01-07T20:02:32;94101.03;;;-2.20;41.83
21828;BME280;11076;47.942;11.804;2024-01-07T20:07:35;94099.44;;;-2.46;42.68
21828;BME280;11076;47.942;11.804;2024-01-07T20:12:37;94102.13;;;-2.28;42.15
21828;BME280;11076;47.942;11.804;2024-01-07T20:17:39;94106.06;;;-2.55;42.27
21828;BME280;11076;47.942;11.804;2024-01-07T20:22:42;94116.66;;;-2.42;42.49
21828;BME280;11076;47.942;11.804;2024-01-07T20:27:44;94121.47;;;-2.32;42.48
21828;BME280;11076;47.942;11.804;2024-01-07T20:32:47;94115.75;;;-2.36;41.88
21828;BME280;11076;47.942;11.804;2024-01-07T20:37:49;94125.47;;;-2.41;41.72
21828;BME280;11076;47.942;11.804;2024-01-07T20:42:51;94127.00;;;-2.52;42.21
21828;BME280;11076;47.942;11.804;2024-01-07T20:47:54;94124.59;;;-2.60;41.94
21828;BME280;11076;47.942;11.804;2024-01-07T20:52:57;94137.22;;;-2.49;41.99
21828;BME280;11076;47.942;11.804;2024-01-07T20:57:59;94141.13;;;-2.45;41.55
21828;BME280;11076;47.942;11.804;2024-01-07T21:03:02;94140.88;;;-2.69;42.24
21828;BME280;11076;47.942;11.804;2024-01-07T21:08:05;94141.47;;;-2.67;41.44
21828;BME280;11076;47.942;11.804;2024-01-07T21:13:08;94148.25;;;-2.39;41.13
21828;BME280;11076;47.942;11.804;2024-01-07T21:18:12;94151.88;;;-2.33;41.92
21828;BME280;11076;47.942;11.804;2024-01-07T21:23:16;94152.72;;;-2.33;41.43
21828;BME280;11076;47.942;11.804;2024-01-07T21:28:20;94153.28;;;-2.56;41.68
21828;BME280;11076;47.942;11.804;2024-01-07T21:33:23;94159.81;;;-2.52;41.23
21828;BME280;11076;47.942;11.804;2024-01-07T21:38:27;94165.16;;;-2.52;41.62
21828;BME280;11076;47.942;11.804;2024-01-07T21:43:30;94169.31;;;-2.31;41.81
21828;BME280;11076;47.942;11.804;2024-01-07T21:48:35;94175.19;;;-2.72;40.90
21828;BME280;11076;47.942;11.804;2024-01-07T21:53:37;94171.50;;;-2.78;40.68
21828;BME280;11076;47.942;11.804;2024-01-07T21:58:39;94173.19;;;-2.84;41.02
21828;BME280;11076;47.942;11.804;2024-01-07T22:03:42;94179.31;;;-3.73;42.52
21828;BME280;11076;47.942;11.804;2024-01-07T22:08:44;94182.06;;;-4.00;42.59
21828;BME280;11076;47.942;11.804;2024-01-07T22:13:47;94186.19;;;-3.32;41.59
21828;BME280;11076;47.942;11.804;2024-01-07T22:18:49;94182.34;;;-3.63;42.02
21828;BME280;11076;47.942;11.804;2024-01-07T22:23:52;94189.91;;;-3.40;41.30
21828;BME280;11076;47.942;11.804;2024-01-07T22:28:56;94187.94;;;-3.78;41.54
21828;BME280;11076;47.942;11.804;2024-01-07T22:33:58;94187.19;;;-4.18;42.17
21828;BME280;11076;47.942;11.804;2024-01-07T22:39:04;94205.13;;;-3.80;41.53
21828;BME280;11076;47.942;11.804;2024-01-07T22:44:07;94196.97;;;-3.86;41.34
21828;BME280;11076;47.942;11.804;2024-01-07T22:49:10;94198.00;;;-3.80;41.93
21828;BME280;11076;47.942;11.804;2024-01-07T22:54:12;94201.41;;;-3.53;41.13
21828;BME280;11076;47.942;11.804;2024-01-07T22:59:17;94210.72;;;-3.24;40.87
21828;BME280;11076;47.942;11.804;2024-01-07T23:04:20;94214.16;;;-3.68;40.99
21828;BME280;11076;47.942;11.804;2024-01-07T23:09:22;94203.16;;;-4.25;41.66
21828;BME280;11076;47.942;11.804;2024-01-07T23:14:24;94220.56;;;-4.49;41.55
21828;BME280;11076;47.942;11.804;2024-01-07T23:19:27;94219.13;;;-3.92;40.98
21828;BME280;11076;47.942;11.804;2024-01-07T23:24:30;94234.03;;;-4.71;42.02
21828;BME280;11076;47.942;11.804;2024-01-07T23:29:33;94239.59;;;-4.52;41.74
21828;BME280;11076;47.942;11.804;2024-01-07T23:34:37;94239.16;;;-4.76;42.00
21828;BME280;11076;47.942;11.804;2024-01-07T23:39:40;94234.28;;;-4.26;41.26
21828;BME280;11076;47.942;11.804;2024-01-07T23:44:42;94250.84;;;-4.50;40.94
21828;BME280;11076;47.942;11.804;2024-01-07T23:49:44;94246.09;;;-4.68;40.71
21828;BME280;11076;47.942;11.804;2024-01-07T23:54:47;94242.31;;;-5.14;41.12
21828;BME280;11076;47.942;11.804;2024-01-07T23:59:49;94255.47;;;-4.92;41.05
